Time;durP1;ratioP1;P1;durP2;ratioP2;P2;SDS_P1;SDS_P2;PMS_P1;PMS_P2;Temp;Humidity;BMP_temperature;BMP_pressure;BME280_temperature;BME280_humidity;BME280_pressure;Samples;Min_cycle;Max_cycle;Signal;HPM_P1;HPM_P2
2022/06/26 00:01:14;;;;;;;0.40;0.20;;;18.00;99.90;;;;;;5073203;28;20386;-67
2022/06/26 00:03:40;;;;;;;0.40;0.20;;;17.90;99.90;;;;;;5055903;28;20428;-67
2022/06/26 00:06:06;;;;;;;0.40;0.20;;;17.80;99.90;;;;;;5069261;28;20400;-66
2022/06/26 00:08:32;;;;;;;0.40;0.30;;;17.90;99.90;;;;;;5072836;28;20464;-66
2022/06/26 00:10:57;;;;;;;0.40;0.20;;;17.80;99.90;;;;;;5074203;28;20391;-66
2022/06/26 00:13:23;;;;;;;0.40;0.20;;;17.90;99.90;;;;;;5073242;28;20423;-66
2022/06/26 00:15:49;;;;;;;0.70;0.70;;;17.90;99.90;;;;;;5074272;28;20913;-66
2022/06/26 00:18:15;;;;;;;0.40;0.20;;;17.70;99.90;;;;;;5073285;28;20396;-65
2022/06/26 00:20:40;;;;;;;0.40;0.20;;;17.70;99.90;;;;;;5073266;28;20392;-65
2022/06/26 00:23:06;;;;;;;0.40;0.30;;;17.70;99.90;;;;;;5073570;28;20411;-65
2022/06/26 00:25:33;;;;;;;0.40;0.20;;;17.60;99.90;;;;;;5072974;28;20395;-65
2022/06/26 00:27:59;;;;;;;0.50;0.50;;;17.80;99.90;;;;;;5073420;28;20739;-65
2022/06/26 00:30:25;;;;;;;0.40;0.20;;;17.80;99.90;;;;;;5072688;28;20387;-65
2022/06/26 00:32:50;;;;;;;0.40;0.20;;;17.70;99.90;;;;;;5072702;28;20423;-65
2022/06/26 00:35:18;;;;;;;0.40;0.20;;;17.70;99.90;;;;;;5072065;28;20419;-65
2022/06/26 00:37:43;;;;;;;0.40;0.30;;;17.60;99.90;;;;;;5073207;28;20396;-64
2022/06/26 00:40:10;;;;;;;0.40;0.30;;;17.60;99.90;;;;;;5073209;28;20467;-66
2022/06/26 00:42:36;;;;;;;0.40;0.30;;;17.60;99.90;;;;;;5054492;28;21020;-65
2022/06/26 00:45:03;;;;;;;0.40;0.30;;;17.60;99.90;;;;;;5073057;28;20868;-66
2022/06/26 00:47:30;;;;;;;0.40;0.20;;;17.60;99.90;;;;;;5072132;28;20463;-66
2022/06/26 00:49:56;;;;;;;0.40;0.30;;;17.60;99.90;;;;;;5073224;28;20427;-67
2022/06/26 00:52:22;;;;;;;0.40;0.20;;;17.60;99.90;;;;;;5072471;28;20768;-66
2022/06/26 00:54:51;;;;;;;0.40;0.30;;;17.60;99.90;;;;;;5072815;28;20490;-66
2022/06/26 00:57:19;;;;;;;0.40;0.20;;;17.60;99.90;;;;;;5072350;28;20384;-66
2022/06/26 00:59:44;;;;;;;0.40;0.20;;;17.70;99.90;;;;;;5070175;28;20952;-66
2022/06/26 01:02:10;;;;;;;0.40;0.30;;;17.60;99.90;;;;;;5072228;28;20482;-65
2022/06/26 01:04:36;;;;;;;0.40;0.20;;;17.80;99.90;;;;;;5072060;28;21067;-65
2022/06/26 01:07:02;;;;;;;0.60;0.60;;;17.70;99.90;;;;;;5072656;28;20388;-64
2022/06/26 01:09:27;;;;;;;0.40;0.30;;;17.70;99.90;;;;;;5071797;28;20388;-64
2022/06/26 01:11:53;;;;;;;0.40;0.20;;;17.60;99.90;;;;;;5073091;28;20721;-65
2022/06/26 01:14:20;;;;;;;0.40;0.20;;;17.60;99.90;;;;;;5071635;28;20491;-66
2022/06/26 01:16:46;;;;;;;0.40;0.20;;;17.60;99.90;;;;;;5072865;28;20463;-65
2022/06/26 01:19:15;;;;;;;0.40;0.30;;;17.50;99.90;;;;;;5073386;28;20380;-67
2022/06/26 01:21:42;;;;;;;0.40;0.30;;;17.50;99.90;;;;;;5072338;28;20468;-66
2022/06/26 01:24:07;;;;;;;0.60;0.60;;;17.60;99.90;;;;;;5072109;28;20807;-67
2022/06/26 01:26:34;;;;;;;0.40;0.30;;;17.50;99.90;;;;;;5072317;28;20388;-67
2022/06/26 01:29:01;;;;;;;0.40;0.30;;;17.40;99.90;;;;;;5072334;28;20482;-67
2022/06/26 01:31:26;;;;;;;0.40;0.30;;;17.50;99.90;;;;;;5071690;28;20376;-67
2022/06/26 01:33:52;;;;;;;0.40;0.20;;;17.50;99.90;;;;;;5071862;28;20775;-66
2022/06/26 01:36:18;;;;;;;0.40;0.20;;;17.50;99.90;;;;;;5071405;28;20772;-66
2022/06/26 01:38:44;;;;;;;0.40;0.20;;;17.50;99.90;;;;;;5071934;28;20384;-66
2022/06/26 01:41:10;;;;;;;0.40;0.30;;;17.40;99.90;;;;;;5072667;28;20380;-66
2022/06/26 01:43:37;;;;;;;0.40;0.30;;;17.50;99.90;;;;;;5071427;28;20581;-66
2022/06/26 01:46:05;;;;;;;0.90;0.80;;;17.40;99.90;;;;;;5072216;28;20384;-67
2022/06/26 01:48:32;;;;;;;0.40;0.20;;;17.50;99.90;;;;;;5070943;28;20400;-66
2022/06/26 01:50:59;;;;;;;0.40;0.20;;;17.60;99.90;;;;;;5072160;28;20384;-66
2022/06/26 01:53:26;;;;;;;0.40;0.30;;;17.40;99.90;;;;;;5074608;28;20536;-66
2022/06/26 01:55:52;;;;;;;0.40;0.20;;;17.30;99.90;;;;;;5072103;28;20846;-66
2022/06/26 01:58:17;;;;;;;0.40;0.30;;;17.30;99.90;;;;;;5071509;28;20466;-66
2022/06/26 02:00:46;;;;;;;0.40;0.30;;;17.30;99.90;;;;;;5071371;28;20852;-66
2022/06/26 02:03:12;;;;;;;0.40;0.30;;;17.30;99.90;;;;;;5071656;28;20416;-68
2022/06/26 02:05:38;;;;;;;0.40;0.30;;;17.40;99.90;;;;;;5071058;28;20392;-66
2022/06/26 02:08:05;;;;;;;0.40;0.30;;;17.30;99.90;;;;;;5071672;28;20395;-67
2022/06/26 02:16:02;;;;;;;0.40;0.20;;;17.30;99.90;;;;;;5071706;28;20395;-67
2022/06/26 02:18:29;;;;;;;0.40;0.20;;;17.20;99.90;;;;;;5070742;28;20376;-66
2022/06/26 02:20:55;;;;;;;0.40;0.30;;;17.20;99.90;;;;;;5071669;28;20387;-66
2022/06/26 02:23:21;;;;;;;0.40;0.30;;;17.30;99.90;;;;;;5070753;28;20997;-66
2022/06/26 02:25:47;;;;;;;0.40;0.30;;;17.20;99.90;;;;;;5070954;28;20903;-66
2022/06/26 02:28:13;;;;;;;0.40;0.20;;;17.10;99.90;;;;;;5071298;28;20937;-66
2022/06/26 02:30:39;;;;;;;0.40;0.20;;;17.10;99.90;;;;;;5070086;28;21041;-66
2022/06/26 02:33:05;;;;;;;0.40;0.20;;;17.00;99.90;;;;;;5070408;28;20426;-66
2022/06/26 02:35:31;;;;;;;0.40;0.20;;;17.10;99.90;;;;;;5070348;28;20482;-66
2022/06/26 02:37:58;;;;;;;0.40;0.30;;;17.10;99.90;;;;;;5070759;28;20799;-66
2022/06/26 02:40:26;;;;;;;0.40;0.20;;;17.10;99.90;;;;;;5068254;28;20396;-66
2022/06/26 02:42:52;;;;;;;0.40;0.20;;;17.00;99.90;;;;;;5069662;28;20403;-66
2022/06/26 02:45:18;;;;;;;0.40;0.30;;;17.00;99.90;;;;;;5070685;28;20448;-66
2022/06/26 02:47:44;;;;;;;0.70;0.70;;;16.90;99.90;;;;;;5068933;28;20415;-66
2022/06/26 02:50:11;;;;;;;0.40;0.20;;;16.90;99.90;;;;;;5071146;28;20368;-66
2022/06/26 02:52:37;;;;;;;0.40;0.20;;;17.00;99.90;;;;;;5073759;28;20400;-66
2022/06/26 02:55:04;;;;;;;0.40;0.20;;;17.00;99.90;;;;;;5070432;28;20395;-66
2022/06/26 02:57:29;;;;;;;0.40;0.20;;;17.00;99.90;;;;;;5069299;28;20730;-66
2022/06/26 02:59:55;;;;;;;0.40;0.20;;;17.00;99.90;;;;;;5070840;28;20394;-66
2022/06/26 03:02:23;;;;;;;0.40;0.20;;;16.90;99.90;;;;;;5069967;28;20405;-66
2022/06/26 03:04:49;;;;;;;0.40;0.20;;;16.90;99.90;;;;;;5070392;28;20474;-66
2022/06/26 03:07:14;;;;;;;0.40;0.30;;;16.90;99.90;;;;;;5070157;28;20427;-66
2022/06/26 03:09:40;;;;;;;0.40;0.30;;;16.90;99.90;;;;;;5069707;28;20390;-66
2022/06/26 03:12:06;;;;;;;0.50;0.40;;;16.90;99.90;;;;;;5069477;28;20874;-66
2022/06/26 03:14:33;;;;;;;0.40;0.30;;;16.90;99.90;;;;;;5069806;28;20396;-67
2022/06/26 03:16:59;;;;;;;0.40;0.20;;;16.80;99.90;;;;;;5070070;28;20391;-66
2022/06/26 03:19:25;;;;;;;0.90;0.90;;;16.90;99.90;;;;;;5068319;28;20404;-67
2022/06/26 03:21:50;;;;;;;0.40;0.20;;;16.80;99.90;;;;;;5070611;28;20384;-66
2022/06/26 03:24:16;;;;;;;0.40;0.27;;;16.80;99.90;;;;;;5069662;28;20419;-66
2022/06/26 03:26:42;;;;;;;0.40;0.20;;;16.80;99.90;;;;;;5069396;28;20426;-66
2022/06/26 03:29:09;;;;;;;0.45;0.43;;;16.80;99.90;;;;;;5070046;28;20388;-66
2022/06/26 03:31:35;;;;;;;0.40;0.30;;;16.80;99.90;;;;;;5069533;28;20454;-66
2022/06/26 03:34:02;;;;;;;0.40;0.23;;;16.80;99.90;;;;;;5069706;28;20419;-67
2022/06/26 03:36:28;;;;;;;0.40;0.30;;;16.70;99.90;;;;;;5069506;28;20387;-66
2022/06/26 03:38:54;;;;;;;0.40;0.30;;;16.80;99.90;;;;;;5070488;28;20454;-67
2022/06/26 03:41:20;;;;;;;0.40;0.30;;;16.80;99.90;;;;;;5070058;28;20395;-67
2022/06/26 03:43:46;;;;;;;0.40;0.30;;;16.80;99.90;;;;;;5070447;28;20500;-67
2022/06/26 03:46:12;;;;;;;0.40;0.20;;;16.80;99.90;;;;;;5070281;28;20472;-67
2022/06/26 03:48:38;;;;;;;0.40;0.20;;;16.80;99.90;;;;;;5069288;28;20805;-67
2022/06/26 03:51:05;;;;;;;0.40;0.30;;;16.70;99.90;;;;;;5064138;28;20387;-67
2022/06/26 03:53:31;;;;;;;0.40;0.30;;;16.70;99.90;;;;;;5069610;28;20441;-67
2022/06/26 03:55:57;;;;;;;0.40;0.20;;;16.80;99.90;;;;;;5069812;28;20384;-67
2022/06/26 03:58:23;;;;;;;0.70;0.70;;;16.80;99.90;;;;;;5069673;28;20406;-67
2022/06/26 04:00:50;;;;;;;0.40;0.30;;;16.70;99.90;;;;;;5068295;28;20399;-67
2022/06/26 04:03:16;;;;;;;0.40;0.20;;;16.60;99.90;;;;;;5068935;28;20419;-67
2022/06/26 04:05:42;;;;;;;0.40;0.20;;;16.70;99.90;;;;;;5069778;28;20483;-67
2022/06/26 04:08:08;;;;;;;0.40;0.30;;;16.70;99.90;;;;;;5068765;28;20868;-67
2022/06/26 04:10:34;;;;;;;0.40;0.20;;;16.80;99.90;;;;;;5062971;28;20939;-66
2022/06/26 04:13:02;;;;;;;0.40;0.20;;;16.70;99.90;;;;;;5067512;28;20933;-66
2022/06/26 04:15:29;;;;;;;0.40;0.30;;;16.80;99.90;;;;;;5068607;28;20394;-66
2022/06/26 04:17:55;;;;;;;0.40;0.22;;;16.90;99.90;;;;;;5070635;28;20433;-66
2022/06/26 04:20:21;;;;;;;0.40;0.20;;;16.80;99.90;;;;;;5069152;28;20399;-67
2022/06/26 04:23:05;;;;;;;0.40;0.20;;;16.90;99.90;;;;;;5069218;28;20400;-66
2022/06/26 04:25:32;;;;;;;0.40;0.35;;;16.90;99.90;;;;;;5069342;28;20403;-66
2022/06/26 04:27:59;;;;;;;0.40;0.20;;;16.90;99.90;;;;;;5070219;28;20404;-66
2022/06/26 04:30:25;;;;;;;0.40;0.30;;;16.90;99.90;;;;;;5068475;28;20461;-66
2022/06/26 04:32:50;;;;;;;0.40;0.20;;;17.00;99.90;;;;;;5069501;28;20419;-66
2022/06/26 04:35:17;;;;;;;0.40;0.20;;;17.10;99.90;;;;;;5071180;28;20416;-65
2022/06/26 04:37:43;;;;;;;0.40;0.20;;;17.10;99.90;;;;;;5072668;28;21105;-65
2022/06/26 04:40:11;;;;;;;0.40;0.20;;;17.10;99.90;;;;;;5069747;28;20497;-65
2022/06/26 04:42:38;;;;;;;0.40;0.20;;;17.20;99.90;;;;;;5067656;28;22054;-65
2022/06/26 04:45:04;;;;;;;0.40;0.20;;;17.20;99.90;;;;;;5072939;28;20494;-65
2022/06/26 04:47:30;;;;;;;0.40;0.30;;;17.30;99.90;;;;;;5072594;28;20392;-65
2022/06/26 04:49:56;;;;;;;0.40;0.30;;;17.30;99.90;;;;;;5073179;28;20387;-65
2022/06/26 04:52:21;;;;;;;0.40;0.20;;;17.30;99.90;;;;;;5075080;28;20868;-65
2022/06/26 04:54:47;;;;;;;0.40;0.20;;;17.30;99.90;;;;;;5072448;28;20404;-65
2022/06/26 04:57:13;;;;;;;0.40;0.30;;;17.40;99.90;;;;;;5072239;28;20399;-65
2022/06/26 04:59:38;;;;;;;0.40;0.20;;;17.50;99.90;;;;;;5071906;28;20399;-65
2022/06/26 05:02:06;;;;;;;0.40;0.30;;;17.50;99.90;;;;;;5071377;28;20721;-66
2022/06/26 05:04:31;;;;;;;0.40;0.20;;;17.60;99.90;;;;;;5071763;28;20474;-65
2022/06/26 05:06:58;;;;;;;0.40;0.20;;;17.50;99.90;;;;;;5073104;28;20388;-65
2022/06/26 05:09:24;;;;;;;0.40;0.20;;;17.50;99.90;;;;;;5072003;28;20391;-66
2022/06/26 05:11:50;;;;;;;0.40;0.30;;;17.50;99.90;;;;;;5072960;28;20376;-66
2022/06/26 05:14:17;;;;;;;0.40;0.20;;;17.60;99.90;;;;;;5072173;28;20962;-66
2022/06/26 05:16:43;;;;;;;0.40;0.30;;;17.60;99.90;;;;;;5072287;28;21140;-66
2022/06/26 05:19:08;;;;;;;0.40;0.30;;;17.70;99.90;;;;;;5072330;28;20402;-65
2022/06/26 05:21:34;;;;;;;0.40;0.30;;;17.80;99.90;;;;;;5071554;28;20392;-66
2022/06/26 05:24:00;;;;;;;0.40;0.30;;;17.80;99.90;;;;;;5072094;28;20417;-66
2022/06/26 05:26:26;;;;;;;0.40;0.20;;;17.80;99.90;;;;;;5071235;28;20399;-66
2022/06/26 05:28:52;;;;;;;0.40;0.20;;;17.90;99.90;;;;;;5072403;28;20396;-66
2022/06/26 05:31:18;;;;;;;0.40;0.20;;;17.90;99.90;;;;;;5072292;28;20376;-66
2022/06/26 05:33:44;;;;;;;0.40;0.30;;;17.90;99.90;;;;;;5071147;28;20446;-66
2022/06/26 05:36:10;;;;;;;0.40;0.27;;;18.00;99.90;;;;;;5072094;28;20710;-65
2022/06/26 05:38:36;;;;;;;0.40;0.20;;;18.00;99.90;;;;;;5070658;28;20887;-66
2022/06/26 05:41:02;;;;;;;0.40;0.30;;;18.00;99.90;;;;;;5072757;28;20448;-66
2022/06/26 05:43:28;;;;;;;0.70;0.70;;;18.10;99.90;;;;;;5071702;28;20412;-66
2022/06/26 05:45:54;;;;;;;0.90;0.90;;;18.10;99.90;;;;;;5071816;28;21001;-66
2022/06/26 05:48:20;;;;;;;0.40;0.22;;;18.00;99.90;;;;;;5072272;28;20426;-65
2022/06/26 05:50:46;;;;;;;0.40;0.20;;;18.10;99.90;;;;;;5071327;28;20384;-66
2022/06/26 05:53:12;;;;;;;0.40;0.20;;;18.10;99.90;;;;;;5077257;28;20399;-66
2022/06/26 05:55:38;;;;;;;0.40;0.30;;;18.10;99.90;;;;;;5071547;28;20384;-66
2022/06/26 05:58:07;;;;;;;0.40;0.20;;;18.20;99.90;;;;;;5071457;28;20872;-66
2022/06/26 06:00:33;;;;;;;0.40;0.20;;;18.20;99.90;;;;;;5070700;28;20427;-67
2022/06/26 06:02:59;;;;;;;0.40;0.20;;;18.20;99.90;;;;;;5071967;28;20427;-67
2022/06/26 06:05:28;;;;;;;0.40;0.30;;;18.30;99.90;;;;;;5070345;28;20926;-67
2022/06/26 06:07:54;;;;;;;0.40;0.20;;;18.50;99.90;;;;;;5052101;28;20455;-68
2022/06/26 06:10:21;;;;;;;0.40;0.20;;;18.40;99.90;;;;;;5061330;28;20868;-67
2022/06/26 06:12:48;;;;;;;0.40;0.30;;;18.50;99.90;;;;;;5071298;28;20375;-68
2022/06/26 06:15:14;;;;;;;0.40;0.30;;;18.50;99.90;;;;;;5071447;28;20913;-68
2022/06/26 06:17:40;;;;;;;0.40;0.20;;;18.50;99.90;;;;;;5069437;28;20398;-67
2022/06/26 06:20:14;;;;;;;0.40;0.30;;;18.50;99.90;;;;;;5070901;28;20406;-68
2022/06/26 06:22:44;;;;;;;0.70;0.60;;;18.50;99.90;;;;;;5071064;28;20396;-68
2022/06/26 06:25:11;;;;;;;0.40;0.20;;;18.70;99.90;;;;;;5071595;28;20892;-68
2022/06/26 06:27:38;;;;;;;0.40;0.20;;;18.80;99.90;;;;;;5070267;28;20498;-67
2022/06/26 06:30:05;;;;;;;0.70;0.70;;;18.60;99.90;;;;;;5070840;28;20408;-67
2022/06/26 06:32:31;;;;;;;0.40;0.22;;;18.80;99.90;;;;;;5063347;28;20408;-67
2022/06/26 06:34:57;;;;;;;0.40;0.30;;;18.90;99.90;;;;;;5059013;28;20560;-67
2022/06/26 06:37:23;;;;;;;0.43;0.38;;;19.00;99.90;;;;;;5070930;28;20384;-67
2022/06/26 06:39:49;;;;;;;0.40;0.20;;;19.00;99.90;;;;;;5070619;28;20760;-68
2022/06/26 06:42:14;;;;;;;0.40;0.30;;;19.00;99.90;;;;;;5070704;28;20392;-68
2022/06/26 06:44:40;;;;;;;0.40;0.20;;;19.00;99.90;;;;;;5070062;28;20404;-67
2022/06/26 06:47:06;;;;;;;0.40;0.30;;;19.00;99.90;;;;;;5069668;28;20549;-67
2022/06/26 06:49:32;;;;;;;0.70;0.60;;;19.00;99.90;;;;;;5069614;28;20866;-67
2022/06/26 06:51:58;;;;;;;0.40;0.30;;;18.90;99.90;;;;;;5051216;28;20401;-67
2022/06/26 06:54:25;;;;;;;0.40;0.20;;;18.80;99.90;;;;;;5058393;28;20445;-65
2022/06/26 06:56:51;;;;;;;0.40;0.20;;;18.80;99.90;;;;;;5070301;28;20855;-65
2022/06/26 06:59:17;;;;;;;0.40;0.30;;;18.70;99.90;;;;;;5069797;28;20384;-66
2022/06/26 07:01:43;;;;;;;0.40;0.20;;;18.60;99.90;;;;;;5069466;28;20402;-65
2022/06/26 07:04:10;;;;;;;0.40;0.30;;;18.80;99.90;;;;;;5070746;28;20408;-66
2022/06/26 07:06:35;;;;;;;0.40;0.30;;;18.90;99.90;;;;;;5069778;28;20415;-66
2022/06/26 07:09:01;;;;;;;0.40;0.30;;;18.80;99.90;;;;;;5070596;28;20415;-65
2022/06/26 07:11:27;;;;;;;2.70;0.83;;;18.90;99.90;;;;;;5070017;28;20856;-66
2022/06/26 07:13:52;;;;;;;0.40;0.30;;;18.80;99.90;;;;;;5070402;28;20890;-66
2022/06/26 07:16:18;;;;;;;0.40;0.30;;;18.90;99.90;;;;;;5069839;28;20426;-67
2022/06/26 07:18:43;;;;;;;0.40;0.30;;;18.90;99.90;;;;;;5069474;28;20473;-67
2022/06/26 07:21:09;;;;;;;0.40;0.30;;;19.00;99.90;;;;;;5052123;28;20474;-67
2022/06/26 07:23:35;;;;;;;0.40;0.30;;;19.20;99.90;;;;;;5069524;28;20443;-66
2022/06/26 07:26:01;;;;;;;0.40;0.30;;;19.30;99.90;;;;;;5070109;28;20419;-67
2022/06/26 07:28:27;;;;;;;0.40;0.40;;;19.30;99.90;;;;;;5068180;28;20405;-67
2022/06/26 07:30:53;;;;;;;0.40;0.30;;;19.20;99.90;;;;;;5069441;28;20396;-67
2022/06/26 07:36:03;;;;;;;0.40;0.20;;;19.10;99.90;;;;;;5069777;28;20831;-69
2022/06/26 07:38:29;;;;;;;0.40;0.28;;;19.10;99.90;;;;;;5051632;28;20431;-68
2022/06/26 07:40:55;;;;;;;0.40;0.30;;;19.10;99.90;;;;;;5070128;28;20388;-68
2022/06/26 07:43:21;;;;;;;0.40;0.30;;;19.20;99.90;;;;;;5082228;28;20447;-69
2022/06/26 07:45:48;;;;;;;0.40;0.20;;;19.20;99.90;;;;;;5069319;28;20780;-67
2022/06/26 07:48:13;;;;;;;0.40;0.30;;;19.30;99.90;;;;;;5070824;28;20468;-70
2022/06/26 07:50:39;;;;;;;0.40;0.30;;;19.40;99.90;;;;;;5069072;28;20944;-67
2022/06/26 07:53:05;;;;;;;0.40;0.20;;;19.40;99.90;;;;;;5068780;28;20449;-69
2022/06/26 07:55:31;;;;;;;0.40;0.30;;;19.40;99.90;;;;;;5068766;28;20391;-70
2022/06/26 07:57:57;;;;;;;0.40;0.20;;;19.40;99.90;;;;;;5069631;28;20472;-70
2022/06/26 08:00:22;;;;;;;0.40;0.20;;;19.30;99.90;;;;;;5069196;28;20400;-69
2022/06/26 08:02:48;;;;;;;0.40;0.30;;;19.40;99.90;;;;;;5069729;28;20440;-70
2022/06/26 08:05:14;;;;;;;0.40;0.20;;;19.40;99.90;;;;;;5069516;28;20419;-69
2022/06/26 08:07:39;;;;;;;0.90;0.90;;;19.50;99.90;;;;;;5068983;28;20871;-70
2022/06/26 08:10:06;;;;;;;0.40;0.20;;;19.50;99.90;;;;;;5070670;28;20482;-69
2022/06/26 08:12:31;;;;;;;0.40;0.20;;;19.50;99.90;;;;;;5073046;28;20793;-68
2022/06/26 08:14:57;;;;;;;0.40;0.30;;;19.40;99.90;;;;;;5070421;28;20394;-70
2022/06/26 08:17:23;;;;;;;0.40;0.30;;;19.40;99.90;;;;;;5066120;28;20398;-69
2022/06/26 08:19:48;;;;;;;0.40;0.20;;;19.50;99.90;;;;;;5055002;28;20411;-69
2022/06/26 08:22:14;;;;;;;0.40;0.20;;;19.60;99.90;;;;;;5073509;28;20395;-69
2022/06/26 08:24:41;;;;;;;0.40;0.20;;;19.80;99.90;;;;;;5072628;28;20408;-69
2022/06/26 08:27:08;;;;;;;0.40;0.20;;;19.90;99.90;;;;;;5073280;28;20399;-69
2022/06/26 08:29:34;;;;;;;0.40;0.30;;;20.00;99.90;;;;;;5072767;28;20378;-69
2022/06/26 08:32:00;;;;;;;0.50;0.40;;;20.10;99.90;;;;;;5073222;28;20776;-69
2022/06/26 08:34:26;;;;;;;0.70;0.70;;;20.10;99.90;;;;;;5072645;28;20449;-68
2022/06/26 08:36:52;;;;;;;0.70;0.60;;;20.00;99.90;;;;;;5055570;28;20983;-70
2022/06/26 08:39:18;;;;;;;0.40;0.30;;;19.90;99.90;;;;;;5073642;28;20391;-69
2022/06/26 08:41:48;;;;;;;0.40;0.30;;;19.90;99.90;;;;;;5072325;28;20376;-69
2022/06/26 08:44:14;;;;;;;0.40;0.30;;;19.80;99.90;;;;;;5073496;28;20411;-69
2022/06/26 08:46:42;;;;;;;0.40;0.30;;;20.00;99.90;;;;;;5072577;28;20392;-68
2022/06/26 08:49:14;;;;;;;0.40;0.30;;;20.00;99.90;;;;;;5073689;28;20376;-68
2022/06/26 08:51:44;;;;;;;0.40;0.20;;;20.10;99.90;;;;;;5066344;28;20392;-68
2022/06/26 08:54:14;;;;;;;0.40;0.30;;;20.10;99.90;;;;;;5072439;28;20751;-68
2022/06/26 08:56:44;;;;;;;0.40;0.25;;;20.10;99.90;;;;;;5071055;28;20844;-68
2022/06/26 08:59:12;;;;;;;0.40;0.30;;;20.10;99.90;;;;;;5072945;28;20391;-68
2022/06/26 09:01:40;;;;;;;0.70;0.70;;;20.10;99.90;;;;;;5071298;28;20860;-67
2022/06/26 09:04:07;;;;;;;0.40;0.20;;;20.10;99.90;;;;;;5062599;28;20445;-69
2022/06/26 09:06:34;;;;;;;0.40;0.20;;;20.10;99.90;;;;;;5072326;28;20748;-68
2022/06/26 09:09:00;;;;;;;0.40;0.30;;;20.10;99.90;;;;;;5071717;28;20505;-68
2022/06/26 09:11:26;;;;;;;0.40;0.40;;;20.20;99.90;;;;;;5066246;28;20411;-68
2022/06/26 09:13:53;;;;;;;0.40;0.20;;;20.40;99.90;;;;;;5066720;28;20407;-67
2022/06/26 09:16:32;;;;;;;1.83;1.27;;;20.40;99.90;;;;;;5068189;28;20402;-67
2022/06/26 09:19:18;;;;;;;0.40;0.30;;;20.50;99.90;;;;;;5056747;28;20385;-67
2022/06/26 09:21:45;;;;;;;0.40;0.30;;;20.60;99.90;;;;;;5059157;28;20472;-67
2022/06/26 09:24:13;;;;;;;0.40;0.20;;;20.80;99.90;;;;;;5072655;28;20949;-67
2022/06/26 09:26:40;;;;;;;0.50;0.50;;;20.90;99.90;;;;;;5070445;28;20732;-67
2022/06/26 09:29:14;;;;;;;0.40;0.30;;;21.10;99.90;;;;;;5064939;28;20384;-67
2022/06/26 09:31:40;;;;;;;0.40;0.20;;;21.00;99.90;;;;;;5068935;28;20415;-67
2022/06/26 09:34:07;;;;;;;0.60;0.50;;;21.00;99.90;;;;;;5046533;28;20423;-67
2022/06/26 09:36:33;;;;;;;0.40;0.30;;;21.10;99.90;;;;;;5028766;28;20407;-67
2022/06/26 09:39:00;;;;;;;0.60;0.60;;;21.10;99.90;;;;;;5027561;28;20889;-67
2022/06/26 09:41:33;;;;;;;0.40;0.20;;;21.10;99.90;;;;;;5026633;28;20403;-67
2022/06/26 09:43:59;;;;;;;0.40;0.22;;;21.40;99.90;;;;;;5027075;28;20488;-67
2022/06/26 09:46:32;;;;;;;0.40;0.30;;;21.40;99.90;;;;;;5030924;28;20407;-67
2022/06/26 09:48:59;;;;;;;0.40;0.40;;;21.60;99.90;;;;;;5030339;28;20752;-67
2022/06/26 09:51:26;;;;;;;0.50;0.50;;;21.60;99.90;;;;;;5031706;28;20429;-67
2022/06/26 09:53:53;;;;;;;0.40;0.30;;;21.50;99.90;;;;;;5030182;28;20403;-67
2022/06/26 09:56:18;;;;;;;0.40;0.30;;;21.60;99.90;;;;;;5031372;28;20390;-68
2022/06/26 09:58:44;;;;;;;0.40;0.20;;;21.70;99.90;;;;;;5030165;28;20958;-67
2022/06/26 10:06:47;;;;;;;0.40;0.20;;;22.10;99.90;;;;;;4993526;28;20740;-68
2022/06/26 10:09:16;;;;;;;0.40;0.30;;;22.20;99.90;;;;;;5030600;28;20398;-68
2022/06/26 10:11:44;;;;;;;0.40;0.30;;;22.20;99.90;;;;;;5030796;28;20402;-67
2022/06/26 10:14:32;;;;;;;1.00;1.00;;;22.30;99.90;;;;;;5031237;28;20387;-67
2022/06/26 10:17:24;;;;;;;1.75;1.65;;;22.30;99.90;;;;;;5031313;28;20803;-67
2022/06/26 10:19:57;;;;;;;0.40;0.30;;;22.30;99.90;;;;;;5031412;28;20437;-69
2022/06/26 10:22:23;;;;;;;0.40;0.30;;;22.10;99.90;;;;;;5023180;28;20468;-68
2022/06/26 10:24:53;;;;;;;0.40;0.30;;;22.30;99.90;;;;;;5024644;28;20415;-68
2022/06/26 10:27:34;;;;;;;0.50;0.50;;;22.70;99.90;;;;;;5012243;28;20393;-68
2022/06/26 10:30:14;;;;;;;0.40;0.30;;;22.50;99.90;;;;;;5030348;28;20407;-68
2022/06/26 10:32:41;;;;;;;0.40;0.30;;;22.70;99.90;;;;;;5041067;28;20907;-68
2022/06/26 10:35:09;;;;;;;0.40;0.20;;;22.90;99.90;;;;;;5052109;28;20757;-68
2022/06/26 10:37:43;;;;;;;0.40;0.30;;;23.10;99.90;;;;;;5067804;28;20380;-70
2022/06/26 10:42:52;;;;;;;0.40;0.30;;;22.90;99.90;;;;;;5066158;28;20431;-71
2022/06/26 10:43:03;;;;;;;0.40;0.30;;;22.50;99.90;;;;;;5060008;28;20423;-71
2022/06/26 10:45:28;;;;;;;0.40;0.30;;;22.70;99.90;;;;;;5062494;28;20405;-68
2022/06/26 10:47:56;;;;;;;0.40;0.30;;;22.60;99.90;;;;;;5067856;28;20904;-68
2022/06/26 10:50:23;;;;;;;0.40;0.30;;;22.80;99.90;;;;;;5062427;28;20397;-68
2022/06/26 10:52:49;;;;;;;0.40;0.20;;;23.00;99.90;;;;;;5063714;28;20438;-69
2022/06/26 10:55:14;;;;;;;0.50;0.40;;;22.90;99.90;;;;;;5071200;28;20384;-71
2022/06/26 10:57:40;;;;;;;0.70;0.70;;;22.90;99.90;;;;;;5069986;28;20767;-69
2022/06/26 11:00:11;;;;;;;0.40;0.20;;;23.00;99.90;;;;;;5062717;28;20754;-68
2022/06/26 11:02:40;;;;;;;0.40;0.30;;;23.30;99.90;;;;;;5066444;28;20453;-67
2022/06/26 11:05:08;;;;;;;0.40;0.40;;;23.50;99.90;;;;;;5069438;28;20498;-67
2022/06/26 11:07:41;;;;;;;0.40;0.30;;;23.70;99.90;;;;;;5069108;28;20388;-69
2022/06/26 11:10:18;;;;;;;0.40;0.30;;;23.90;99.90;;;;;;5070579;28;20478;-67
2022/06/26 11:12:47;;;;;;;0.40;0.30;;;24.00;99.90;;;;;;5069520;28;20998;-67
2022/06/26 11:15:30;;;;;;;0.80;0.80;;;23.50;99.90;;;;;;5063901;28;20795;-67
2022/06/26 11:18:05;;;;;;;0.40;0.20;;;23.40;99.90;;;;;;5050666;28;20393;-66
2022/06/26 11:20:50;;;;;;;0.40;0.30;;;23.60;99.90;;;;;;5056758;28;20895;-66
2022/06/26 11:23:28;;;;;;;0.40;0.40;;;23.70;99.90;;;;;;5070678;28;20801;-67
2022/06/26 11:25:59;;;;;;;0.40;0.30;;;23.70;99.90;;;;;;5060185;28;20393;-67
2022/06/26 11:28:40;;;;;;;0.40;0.30;;;23.70;99.90;;;;;;5051534;28;20388;-67
2022/06/26 11:31:08;;;;;;;0.60;0.60;;;23.60;99.90;;;;;;5070253;28;20376;-66
2022/06/26 11:33:36;;;;;;;0.40;0.20;;;23.60;99.90;;;;;;5069020;28;20410;-66
2022/06/26 11:36:08;;;;;;;0.40;0.30;;;23.60;99.90;;;;;;5070794;28;20429;-68
2022/06/26 11:38:34;;;;;;;0.50;0.50;;;23.70;99.90;;;;;;5067344;28;20897;-66
2022/06/26 11:41:03;;;;;;;0.40;0.30;;;23.50;99.90;;;;;;5056026;28;20384;-67
2022/06/26 11:43:29;;;;;;;0.40;0.20;;;23.30;99.90;;;;;;5049056;28;20711;-70
2022/06/26 11:45:57;;;;;;;0.40;0.20;;;23.10;99.90;;;;;;5050017;28;20385;-66
2022/06/26 11:48:23;;;;;;;0.40;0.30;;;23.50;99.90;;;;;;5049606;28;20390;-68
2022/06/26 11:50:57;;;;;;;0.40;0.20;;;24.00;99.90;;;;;;5050295;28;20404;-68
2022/06/26 11:53:26;;;;;;;0.40;0.20;;;24.60;99.90;;;;;;5065441;28;20516;-69
2022/06/26 11:55:58;;;;;;;0.40;0.20;;;24.50;99.90;;;;;;5058864;28;20480;-67
2022/06/26 11:58:26;;;;;;;0.40;0.30;;;24.60;99.90;;;;;;5059225;28;20446;-66
2022/06/26 12:01:12;;;;;;;0.40;0.30;;;24.40;99.90;;;;;;5062345;28;20410;-66
2022/06/26 12:03:48;;;;;;;0.40;0.30;;;24.40;99.90;;;;;;5060856;28;20507;-66
2022/06/26 12:06:34;;;;;;;0.40;0.30;;;25.10;99.90;;;;;;5056818;28;20836;-68
2022/06/26 12:09:21;;;;;;;0.40;0.20;;;25.60;99.90;;;;;;5063887;28;20487;-66
2022/06/26 12:11:49;;;;;;;0.40;0.30;;;25.40;99.90;;;;;;5062340;28;20415;-67
2022/06/26 12:14:17;;;;;;;0.40;0.20;;;25.80;99.90;;;;;;5066338;28;20470;-68
2022/06/26 12:16:45;;;;;;;0.40;0.30;;;25.00;99.90;;;;;;5067921;28;20395;-66
2022/06/26 12:19:11;;;;;;;0.50;0.50;;;24.50;99.90;;;;;;5069798;28;20394;-67
2022/06/26 12:21:37;;;;;;;0.40;0.30;;;23.70;99.90;;;;;;5069423;28;20732;-66
2022/06/26 12:24:10;;;;;;;0.40;0.30;;;23.80;99.90;;;;;;5068905;28;20399;-67
2022/06/26 12:26:38;;;;;;;0.40;0.30;;;23.70;99.90;;;;;;5068861;28;20396;-66
2022/06/26 12:29:12;;;;;;;0.40;0.30;;;23.50;99.90;;;;;;5069634;28;20457;-66
2022/06/26 12:31:39;;;;;;;0.40;0.20;;;23.60;99.90;;;;;;5068377;28;20402;-67
2022/06/26 12:34:05;;;;;;;0.50;0.40;;;23.60;99.90;;;;;;5068114;28;20960;-67
2022/06/26 12:36:32;;;;;;;0.40;0.20;;;23.50;99.90;;;;;;5068472;28;20391;-66
2022/06/26 12:38:58;;;;;;;0.40;0.30;;;23.50;99.90;;;;;;5069729;28;20458;-66
2022/06/26 12:41:24;;;;;;;0.40;0.30;;;23.30;99.90;;;;;;5049324;28;20385;-67
2022/06/26 12:43:53;;;;;;;0.40;0.20;;;23.30;99.90;;;;;;5049091;28;20416;-68
2022/06/26 12:46:19;;;;;;;0.40;0.25;;;23.70;99.90;;;;;;5062510;28;20399;-67
2022/06/26 12:48:46;;;;;;;0.40;0.30;;;24.30;99.90;;;;;;5068396;28;20416;-67
2022/06/26 12:51:13;;;;;;;0.40;0.20;;;24.60;99.90;;;;;;5069420;28;20457;-68
2022/06/26 12:53:40;;;;;;;0.40;0.20;;;24.70;99.90;;;;;;5068820;28;20419;-67
2022/06/26 12:56:06;;;;;;;0.40;0.20;;;25.30;99.90;;;;;;5069486;28;20398;-68
2022/06/26 12:58:32;;;;;;;0.40;0.20;;;25.20;99.90;;;;;;5071982;28;20388;-70
2022/06/26 13:00:58;;;;;;;0.40;0.20;;;24.80;99.90;;;;;;5071144;28;20872;-69
2022/06/26 13:03:24;;;;;;;0.40;0.20;;;24.70;99.90;;;;;;5070168;28;20458;-68